Thunder radar more information blitzortung!


Radar de pluja more information rain snow radar


Visita la nostra xarxa de llocs de meteo:

Template documentation
and downloads

And another site



No particular awareness of the weather is required.    There are no Weather-warnings

Pagina Historial Weather Underground text

Diari Resum January 8, 2018 Unitats:  Imperial    Mètric   Tant
« Previous Dia
SegĂźent Dia »
Diari Setmana Mensual Anual Personalitzada
  Maxima: Minima: Media:
Temperatura: TemperatureC °F 2.7 °F 6.9 °F
Punt de rosada: DewpointC °F 0.0 °F 2.7 °F
Humitat: Humidity % 66 % 75 %
Wind Speed: WindSpeedKMH mph 0.0 mph 5 mph
RĂ fegues de vent: WindSpeedGustKMH mph - -
Vent:- - SSW
Pression baro: PressurehPa in 1007.0 in -
Precipitacions: 0.0 in    
Historical Graphs
 
 
Dades de taula per January 8, 2018
Temps Temperatura Punt de rosada Pression baro Vent Wind Speed RĂ fegues de vent Humitat Rainfall Rate (Hourly)
TemperatureC °F DewpointC °F PressurehPa in Calm     Humidity % HourlyPrecipMM in
00:03 4.8 °F 2.3 °F 1007.0 in WSW 1.9 mph   84 % 0.0 in
00:05 3.1 °F 0.8 °F 1008.0 in WSW 3.2 mph 4.8 mph 85 % 0.0 in
00:15 3.1 °F 0.8 °F 1008.0 in WSW 3.2 mph 3.2 mph 85 % 0.0 in
00:25 3.2 °F 1.1 °F 1008.0 in Calm   4.8 mph 86 % 0.0 in
01:05 2.9 °F 0.8 °F 1008.0 in Calm   1.6 mph 86 % 0.0 in
01:15 2.9 °F 0.9 °F 1008.0 in Calm     87 % 0.0 in
01:25 2.9 °F 0.9 °F 1008.0 in Calm   3.2 mph 87 % 0.0 in
01:55 2.7 °F 0.6 °F 1009.0 in WSW 3.2 mph 3.2 mph 86 % 0.0 in
02:35 3.2 °F 1.2 °F 1009.0 in NW 3.2 mph 4.8 mph 87 % 0.0 in
02:55 3.1 °F 1.2 °F 1010.0 in West 3.2 mph 3.2 mph 87 % 0.0 in
03:05 3.0 °F 1.1 °F 1010.0 in West 1.6 mph 6.4 mph 87 % 0.0 in
03:15 3.1 °F 1.2 °F 1010.0 in WSW 1.6 mph 3.2 mph 87 % 0.0 in
03:25 3.3 °F 1.3 °F 1010.0 in Calm   4.8 mph 87 % 0.0 in
03:45 3.4 °F 1.4 °F 1010.0 in West 1.6 mph 3.2 mph 87 % 0.0 in
03:55 3.5 °F 1.6 °F 1009.0 in Calm   3.2 mph 87 % 0.0 in
04:05 3.7 °F 1.7 °F 1010.0 in West 1.6 mph 6.4 mph 87 % 0.0 in
04:25 4.0 °F 2.2 °F 1010.0 in Calm     88 % 0.0 in
04:55 5.2 °F 3.7 °F 1010.0 in SW 3.2 mph 3.2 mph 90 % 0.0 in
11:07 6.0 °F 4.2 °F 1010.7 in WSW 5.6 mph 5.6 mph 88 % 0.0 in
11:12 6.1 °F 4.1 °F 1010.7 in SW 4.7 mph 4.7 mph 87 % 0.0 in
11:13 6.1 °F 4.1 °F 1010.7 in SW 5.6 mph 5.6 mph 87 % 0.0 in
11:18 6.3 °F 4.3 °F 1010.7 in ENE 5.6 mph 5.6 mph 87 % 0.0 in
11:23 6.5 °F 4.5 °F 1010.7 in East 3.7 mph 3.7 mph 87 % 0.0 in
11:28 6.6 °F 4.4 °F 1010.7 in ENE 2.3 mph 2.3 mph 86 % 0.0 in
11:29 6.6 °F 4.4 °F 1010.7 in WNW 3.5 mph 3.5 mph 86 % 0.0 in
11:34 6.6 °F 4.4 °F 1010.7 in NE 7.4 mph 7.4 mph 86 % 0.0 in
11:37 6.8 °F 4.6 °F 1010.0 in NNE 7.4 mph 7.4 mph 86 % 0.0 in
11:42 6.7 °F 4.3 °F 1010.0 in NNE 7.9 mph 7.9 mph 85 % 0.0 in
11:45 6.8 °F 4.4 °F 1010.0 in North 9.3 mph 9.3 mph 85 % 0.0 in
11:50 6.9 °F 4.6 °F 1010.0 in North 7.4 mph 7.4 mph 85 % 0.0 in
11:52 7.0 °F 4.7 °F 1010.0 in ENE 7.4 mph 7.4 mph 85 % 0.0 in
11:58 7.1 °F 4.6 °F 1010.0 in NNE 7.4 mph 7.4 mph 84 % 0.0 in
12:08 7.1 °F 4.2 °F 1010.0 in ENE 9.3 mph 9.3 mph 82 % 0.0 in
12:09 7.0 °F 4.1 °F 1010.0 in NE 9.3 mph 9.3 mph 82 % 0.0 in
12:13 7.2 °F 4.2 °F 1010.0 in ENE 5.6 mph 5.6 mph 81 % 0.0 in
12:18 7.2 °F 4.2 °F 1010.0 in NNE 5.6 mph 5.6 mph 81 % 0.0 in
12:22 7.6 °F 4.6 °F 1010.0 in NNW 3.7 mph 3.7 mph 81 % 0.0 in
12:27 7.8 °F 4.7 °F 1010.0 in NE 3.7 mph   81 % 0.0 in
12:29 7.7 °F 4.7 °F 1010.0 in NE 1.9 mph   81 % 0.0 in
12:34 7.7 °F 4.4 °F 1010.0 in NNE 4.2 mph 4.2 mph 80 % 0.0 in
12:40 7.8 °F 4.6 °F 1010.0 in East 1.6 mph 4.8 mph 80 % 0.0 in
12:45 8.0 °F 4.8 °F 1010.0 in NE 4.7 mph 4.7 mph 80 % 0.0 in
12:51 8.2 °F 4.9 °F 1010.0 in NNE 7.4 mph 7.4 mph 80 % 0.0 in
12:56 8.1 °F 4.7 °F 1010.0 in NNE 7.4 mph 7.4 mph 79 % 0.0 in
13:02 8.6 °F 5.2 °F 1010.0 in West 3.9 mph 3.9 mph 79 % 0.0 in
13:07 9.0 °F 5.6 °F 1010.0 in NNW 1.9 mph   79 % 0.0 in
13:12 9.2 °F 5.7 °F 1010.0 in NE 3.7 mph 3.7 mph 79 % 0.0 in
13:18 9.2 °F 5.6 °F 1010.0 in NNE 5.6 mph 5.6 mph 78 % 0.0 in
13:23 9.3 °F 5.7 °F 1009.0 in NNE 5.6 mph 5.6 mph 78 % 0.0 in
13:29 9.5 °F 5.8 °F 1009.0 in ENE 5.8 mph 5.8 mph 78 % 0.0 in
13:34 9.5 °F 5.7 °F 1009.0 in NE 5.6 mph 5.6 mph 77 % 0.0 in
13:39 9.7 °F 5.8 °F 1008.0 in NE 5.6 mph 5.6 mph 77 % 0.0 in
13:42 9.9 °F 6.1 °F 1008.0 in NNE 4.2 mph 4.2 mph 77 % 0.0 in
13:45 9.9 °F 5.9 °F 1008.0 in NE 3.9 mph 5.8 mph 76 % 0.0 in
13:49 10.0 °F 5.9 °F 1008.0 in NNE 6.4 mph 6.4 mph 76 % 0.0 in
13:53 10.0 °F 5.6 °F 1008.0 in ENE 9.3 mph 9.3 mph 74 % 0.0 in
13:58 10.1 °F 5.7 °F 1008.0 in NNE 7.4 mph 7.4 mph 74 % 0.0 in
14:02 10.1 °F 5.7 °F 1008.0 in NE 9.7 mph 9.7 mph 74 % 0.0 in
14:07 10.0 °F 5.2 °F 1008.0 in NNW 9.3 mph 9.3 mph 72 % 0.0 in
14:12 10.0 °F 5.4 °F 1008.0 in ENE 5.6 mph 5.6 mph 73 % 0.0 in
14:17 10.0 °F 5.4 °F 1008.0 in NE 5.6 mph 5.6 mph 73 % 0.0 in
14:23 10.2 °F 5.6 °F 1008.0 in ENE 5.6 mph 5.6 mph 73 % 0.0 in
14:28 10.4 °F 5.8 °F 1008.0 in NNE 5.6 mph 5.6 mph 73 % 0.0 in
14:34 10.3 °F 5.4 °F 1008.0 in NE 7.9 mph 7.9 mph 72 % 0.0 in
14:40 10.3 °F 5.3 °F 1008.0 in NE 4.8 mph 8.0 mph 71 % 0.0 in
14:47 10.3 °F 5.1 °F 1008.0 in NNE 7.4 mph 7.4 mph 70 % 0.0 in
14:52 10.4 °F 5.2 °F 1008.0 in NNW 3.7 mph 3.7 mph 70 % 0.0 in
14:56 10.4 °F 5.2 °F 1008.0 in NNE 5.6 mph 5.6 mph 70 % 0.0 in
15:01 10.3 °F 5.1 °F 1008.0 in NNE 5.6 mph 5.6 mph 70 % 0.0 in
15:06 10.3 °F 4.8 °F 1008.0 in NNE 7.4 mph 7.4 mph 69 % 0.0 in
15:08 10.3 °F 4.8 °F 1008.0 in NE 5.6 mph 5.6 mph 69 % 0.0 in
15:13 10.4 °F 4.9 °F 1008.0 in ENE 7.4 mph 7.4 mph 69 % 0.0 in
15:18 10.4 °F 4.9 °F 1008.0 in NE 7.9 mph 7.9 mph 69 % 0.0 in
15:23 10.5 °F 5.1 °F 1008.0 in NNW 5.6 mph 5.6 mph 69 % 0.0 in
15:29 10.6 °F 5.2 °F 1008.0 in NNE 3.7 mph 3.7 mph 69 % 0.0 in
15:34 10.7 °F 5.4 °F 1008.0 in SW 3.7 mph 3.7 mph 70 % 0.0 in
15:35 10.8 °F 5.6 °F 1008.0 in NNW 3.7 mph 3.7 mph 70 % 0.0 in
15:40 10.9 °F 5.7 °F 1008.0 in West 5.8 mph 5.8 mph 70 % 0.0 in
15:42 10.9 °F 5.7 °F 1008.0 in SW 5.6 mph 5.6 mph 70 % 0.0 in
15:47 10.9 °F 5.7 °F 1008.0 in West 13.0 mph 13.0 mph 70 % 0.0 in
15:52 11.0 °F 5.5 °F 1008.0 in West 9.3 mph 9.3 mph 69 % 0.0 in
15:58 10.9 °F 5.2 °F 1008.0 in West 9.3 mph 9.3 mph 68 % 0.0 in
16:03 10.9 °F 5.2 °F 1008.0 in WSW 7.4 mph 7.4 mph 68 % 0.0 in
16:09 10.6 °F 4.9 °F 1008.0 in West 7.4 mph 7.4 mph 68 % 0.0 in
16:18 10.1 °F 4.2 °F 1008.0 in West 7.4 mph 7.4 mph 67 % 0.0 in
16:20 10.1 °F 4.2 °F 1008.0 in West 10.3 mph 10.3 mph 67 % 0.0 in
16:27 9.7 °F 3.9 °F 1009.0 in West 13.0 mph 13.0 mph 67 % 0.0 in
16:32 9.5 °F 3.7 °F 1009.0 in WSW 11.1 mph 11.1 mph 67 % 0.0 in
16:43 8.9 °F 2.9 °F 1009.0 in West 11.1 mph 11.1 mph 66 % 0.0 in
16:46 8.8 °F 3.0 °F 1009.0 in WSW 7.4 mph 7.4 mph 67 % 0.0 in
16:51 8.8 °F 3.0 °F 1009.0 in WSW 5.8 mph 5.8 mph 67 % 0.0 in
16:56 8.6 °F 2.8 °F 1009.0 in WSW 5.6 mph 5.6 mph 67 % 0.0 in
17:03 8.3 °F 2.7 °F 1009.0 in WSW 9.3 mph 9.3 mph 68 % 0.0 in
17:09 8.1 °F 2.6 °F 1010.0 in WNW 9.3 mph 9.3 mph 68 % 0.0 in
17:15 7.9 °F 2.3 °F 1010.0 in West 9.5 mph 9.5 mph 68 % 0.0 in
17:19 7.9 °F 2.3 °F 1010.0 in West 7.4 mph 7.4 mph 68 % 0.0 in
17:25 7.8 °F 2.3 °F 1010.0 in WSW 7.4 mph 7.4 mph 68 % 0.0 in
17:30 7.6 °F 2.1 °F 1010.0 in WSW 11.1 mph 11.1 mph 68 % 0.0 in
17:35 7.5 °F 2.2 °F 1010.0 in West 9.3 mph 9.3 mph 69 % 0.0 in
17:37 7.5 °F 2.2 °F 1010.0 in West 7.6 mph 7.6 mph 69 % 0.0 in
17:42 7.3 °F 2.0 °F 1010.0 in West 12.2 mph 12.2 mph 69 % 0.0 in
17:46 7.3 °F 2.0 °F 1010.0 in West 11.1 mph 11.1 mph 69 % 0.0 in
17:48 7.2 °F 1.9 °F 1010.0 in WNW 11.1 mph 11.1 mph 69 % 0.0 in
17:53 7.1 °F 1.8 °F 1010.0 in WSW 7.4 mph 7.4 mph 69 % 0.0 in
17:58 7.0 °F 1.9 °F 1010.0 in SW 7.4 mph 7.4 mph 70 % 0.0 in
18:03 7.0 °F 1.9 °F 1010.0 in West 9.3 mph 9.3 mph 70 % 0.0 in
18:07 6.9 °F 1.8 °F 1010.0 in WSW 7.4 mph 7.4 mph 70 % 0.0 in
18:12 6.9 °F 1.8 °F 1010.0 in West 4.7 mph 4.7 mph 70 % 0.0 in
18:16 6.8 °F 1.7 °F 1010.0 in West 3.7 mph 4.2 mph 70 % 0.0 in
18:21 6.8 °F 1.7 °F 1010.0 in WSW 7.4 mph 7.4 mph 70 % 0.0 in
18:24 6.8 °F 1.7 °F 1010.0 in West 9.3 mph 9.3 mph 70 % 0.0 in
18:25 4.9 °F 0.8 °F 1011.7 in WSW 3.2 mph 4.8 mph 75 % 0.0 in
18:29 6.7 °F 1.6 °F 1010.0 in WNW 9.7 mph 9.7 mph 70 % 0.0 in
18:30 6.7 °F 1.6 °F 1010.0 in WSW 8.0 mph 9.7 mph 70 % 0.0 in
18:35 6.7 °F 1.6 °F 1010.0 in West 5.6 mph 5.6 mph 70 % 0.0 in
18:39 6.7 °F 1.6 °F 1010.0 in West 3.2 mph   70 % 0.0 in
18:44 6.7 °F 1.6 °F 1010.0 in WSW 5.6 mph   70 % 0.0 in
18:45 6.6 °F 1.5 °F 1010.0 in WSW 3.7 mph 3.7 mph 70 % 0.0 in
18:50 6.6 °F 1.7 °F 1010.0 in WSW 3.7 mph 3.7 mph 71 % 0.0 in
18:55 6.6 °F 1.7 °F 1010.0 in WSW 2.6 mph   71 % 0.0 in
19:00 6.6 °F 1.7 °F 1010.0 in WSW 3.7 mph 3.7 mph 71 % 0.0 in
19:03 6.6 °F 1.7 °F 1010.0 in SW 3.7 mph 3.7 mph 71 % 0.0 in
19:05 4.6 °F 0.6 °F 1010.7 in SW 1.6 mph 4.8 mph 75 % 0.0 in
19:06 6.6 °F 1.7 °F 1010.7 in WSW 5.8 mph 5.8 mph 71 % 0.0 in
19:10 6.5 °F 1.6 °F 1010.7 in West 7.4 mph 7.4 mph 71 % 0.0 in
19:15 6.5 °F 1.6 °F 1010.7 in WSW 3.7 mph 3.7 mph 71 % 0.0 in
19:20 6.5 °F 1.6 °F 1010.0 in SW 3.7 mph 3.7 mph 71 % 0.0 in
19:22 6.5 °F 1.8 °F 1010.0 in SW 1.9 mph   72 % 0.0 in
19:23 6.5 °F 1.8 °F 1010.0 in SW 1.9 mph   72 % 0.0 in
19:25 4.5 °F 0.4 °F 1011.7 in WSW 3.2 mph 4.8 mph 75 % 0.0 in
19:28 6.5 °F 1.8 °F 1010.0 in South 1.9 mph 3.2 mph 72 % 0.0 in
19:29 6.5 °F 1.8 °F 1010.0 in South 3.7 mph 3.7 mph 72 % 0.0 in
19:35 6.5 °F 1.6 °F 1010.0 in WNW 3.2 mph 8.0 mph 71 % 0.0 in
19:36 6.6 °F 1.7 °F 1010.7 in WNW 3.7 mph 3.7 mph 71 % 0.0 in
19:41 6.6 °F 1.9 °F 1010.7 in NW 5.6 mph 5.6 mph 72 % 0.0 in
19:45 4.6 °F 0.6 °F 1011.7 in West 3.2 mph 6.4 mph 75 % 0.0 in
19:46 6.6 °F 1.9 °F 1010.7 in WSW 3.9 mph 3.9 mph 72 % 0.0 in
19:48 6.6 °F 1.9 °F 1010.7 in WSW 3.7 mph 3.7 mph 72 % 0.0 in
19:53 6.5 °F 1.8 °F 1010.7 in WSW 1.9 mph   72 % 0.0 in
19:55 4.6 °F 0.6 °F 1011.7 in West 3.2 mph 9.7 mph 75 % 0.0 in
19:58 6.5 °F 1.8 °F 1010.7 in WSW 3.7 mph 3.7 mph 72 % 0.0 in
20:00 6.5 °F 1.8 °F 1010.7 in WSW 1.9 mph   72 % 0.0 in
20:05 6.4 °F 1.7 °F 1010.0 in WSW 2.6 mph 2.6 mph 72 % 0.0 in
20:10 6.4 °F 1.7 °F 1010.0 in WSW 5.6 mph 5.6 mph 72 % 0.0 in
20:12 6.4 °F 1.7 °F 1010.0 in WSW 5.6 mph 5.6 mph 72 % 0.0 in
20:15 4.5 °F 0.4 °F 1011.7 in WSW 1.6 mph 3.2 mph 75 % 0.0 in
20:17 6.4 °F 1.7 °F 1010.0 in WSW 4.2 mph 4.2 mph 72 % 0.0 in
20:18 6.4 °F 1.7 °F 1010.0 in WSW 3.9 mph 4.2 mph 72 % 0.0 in
20:24 6.4 °F 1.7 °F 1010.7 in WSW 4.2 mph 4.2 mph 72 % 0.0 in
20:25 4.4 °F 0.3 °F 1011.7 in WSW 1.6 mph 3.2 mph 75 % 0.0 in
20:28 6.4 °F 1.9 °F 1010.7 in WSW 3.7 mph 3.9 mph 73 % 0.0 in
20:33 6.3 °F 1.8 °F 1010.7 in WSW 9.3 mph 9.3 mph 73 % 0.0 in
20:35 4.4 °F 0.3 °F 1011.7 in WSW 1.6 mph 4.8 mph 75 % 0.0 in
20:38 6.3 °F 1.8 °F 1010.7 in WSW 5.8 mph 5.8 mph 73 % 0.0 in
20:43 6.3 °F 1.8 °F 1010.7 in West 7.2 mph 7.2 mph 73 % 0.0 in
20:45 4.4 °F 0.3 °F 1011.7 in WSW 4.8 mph 6.4 mph 75 % 0.0 in
20:46 6.3 °F 1.8 °F 1010.7 in West 3.7 mph 3.7 mph 73 % 0.0 in
20:51 6.3 °F 1.8 °F 1010.7 in WSW 2.3 mph 2.3 mph 73 % 0.0 in
20:55 4.5 °F 0.4 °F 1011.7 in WSW 4.8 mph 6.4 mph 75 % 0.0 in
20:56 6.3 °F 1.8 °F 1010.7 in WSW 9.3 mph 9.3 mph 73 % 0.0 in
20:58 6.3 °F 1.8 °F 1010.7 in WSW 3.7 mph 3.7 mph 73 % 0.0 in
21:03 6.2 °F 1.7 °F 1010.7 in West 3.7 mph 3.7 mph 73 % 0.0 in
21:05 4.6 °F 0.6 °F 1012.8 in WSW 4.8 mph 6.4 mph 75 % 0.0 in
21:07 6.2 °F 1.7 °F 1010.7 in West 3.7 mph   73 % 0.0 in
21:13 6.2 °F 1.7 °F 1010.7 in WNW 5.6 mph 5.6 mph 73 % 0.0 in
21:19 6.2 °F 1.7 °F 1010.7 in WSW 5.6 mph 5.6 mph 73 % 0.0 in
21:25 6.2 °F 1.7 °F 1010.7 in West 7.4 mph 7.4 mph 73 % 0.0 in
21:30 6.2 °F 1.7 °F 1010.7 in West 4.2 mph 4.2 mph 73 % 0.0 in
21:35 4.8 °F 0.7 °F 1012.8 in WSW 1.6 mph 9.7 mph 75 % 0.0 in
21:37 6.2 °F 1.7 °F 1010.7 in NW 3.7 mph 3.7 mph 73 % 0.0 in
21:45 6.1 °F 1.6 °F 1010.7 in WSW 3.7 mph 3.7 mph 73 % 0.0 in
21:51 6.1 °F 1.6 °F 1010.7 in West 3.7 mph 3.7 mph 73 % 0.0 in
21:55 4.8 °F 0.7 °F 1012.8 in WSW 1.6 mph 4.8 mph 75 % 0.0 in
22:01 6.0 °F 1.7 °F 1010.7 in Calm     74 % 0.0 in
22:05 4.8 °F 0.7 °F 1012.8 in WSW 4.8 mph 8.0 mph 75 % 0.0 in
22:07 5.9 °F 1.6 °F 1010.7 in West 1.9 mph 1.9 mph 74 % 0.0 in
22:15 5.9 °F 1.6 °F 1010.7 in West 2.6 mph 2.6 mph 74 % 0.0 in
22:20 6.0 °F 1.7 °F 1010.0 in West 3.7 mph 3.7 mph 74 % 0.0 in
22:22 6.0 °F 1.7 °F 1010.0 in West 5.6 mph 5.6 mph 74 % 0.0 in
22:25 4.7 °F 0.4 °F 1012.8 in West 8.0 mph 12.9 mph 74 % 0.0 in
22:28 5.9 °F 1.6 °F 1010.0 in West 3.7 mph   74 % 0.0 in
22:33 5.9 °F 1.6 °F 1010.0 in WNW 3.7 mph 3.7 mph 74 % 0.0 in
22:40 5.9 °F 1.6 °F 1010.7 in WNW 1.9 mph 1.9 mph 74 % 0.0 in
22:45 4.6 °F 0.3 °F 1012.8 in West 3.2 mph 6.4 mph 74 % 0.0 in
22:46 5.8 °F 1.5 °F 1010.7 in WNW 1.9 mph   74 % 0.0 in
22:54 5.8 °F 1.5 °F 1011.7 in West 1.9 mph 1.9 mph 74 % 0.0 in
22:55 4.5 °F 0.3 °F 1013.8 in West 1.6 mph 6.4 mph 74 % 0.0 in
22:59 5.8 °F 1.5 °F 1011.7 in West 3.7 mph 3.7 mph 74 % 0.0 in
23:11 5.6 °F 1.3 °F 1011.7 in West 2.6 mph 2.6 mph 74 % 0.0 in
23:16 5.5 °F 1.2 °F 1011.7 in West 3.7 mph   74 % 0.0 in
23:23 5.4 °F 1.1 °F 1011.7 in West 3.7 mph 3.7 mph 74 % 0.0 in
23:25 4.2 °F 0.0 °F 1013.8 in WSW 3.2 mph 4.8 mph 74 % 0.0 in
23:28 5.3 °F 1.2 °F 1011.7 in West 3.7 mph 3.7 mph 75 % 0.0 in
23:29 5.3 °F 1.2 °F 1011.7 in WSW 3.9 mph 3.9 mph 75 % 0.0 in
23:35 5.2 °F 1.1 °F 1011.7 in WSW 5.6 mph 5.6 mph 75 % 0.0 in
23:40 5.3 °F 1.1 °F 1011.7 in WSW 7.4 mph 7.4 mph 74 % 0.0 in
23:45 5.1 °F 1.1 °F 1011.7 in WSW 3.7 mph 3.7 mph 75 % 0.0 in
23:46 5.1 °F 1.1 °F 1011.7 in WSW 4.2 mph 4.2 mph 75 % 0.0 in
23:52 5.0 °F 0.9 °F 1011.7 in WSW 5.6 mph 5.6 mph 75 % 0.0 in
23:53 5.0 °F 0.9 °F 1011.7 in WSW 3.7 mph 3.7 mph 75 % 0.0 in
23:54 5.0 °F 0.9 °F 1011.7 in WSW 3.9 mph 3.9 mph 75 % 0.0 in
23:55 5.0 °F 0.9 °F 1011.7 in WSW 3.2 mph 4.8 mph 75 % 0.0 in
23:56 5.0 °F 0.9 °F 1011.7 in West 5.3 mph 5.3 mph 75 % 0.0 in
23:57 5.0 °F 0.9 °F 1011.7 in West 5.6 mph 5.6 mph 75 % 0.0 in
23:58 5.0 °F 0.9 °F 1011.7 in West 5.6 mph 5.6 mph 75 % 0.0 in
Meteo Sesrovires
Elogis d' Weather Underground - 3.75 mb

Guio original per  Jim McMurry - jmcmurry@mwt.net Adaptat per a la plantilla per  Wim van der Kuil - Leuven-Template.eu

Trobareu la nostra informacio del temps tambe a:

Weather Underground

AWEKAS